Time;durP1;ratioP1;P1;durP2;ratioP2;P2;SDS_P1;SDS_P2;PMS_P1;PMS_P2;Temp;Humidity;BMP_temperature;BMP_pressure;BME280_temperature;BME280_humidity;BME280_pressure;Samples;Min_cycle;Max_cycle;Signal;HPM_P1;HPM_P2
2022/03/22 00:01:31;;;;;;;47.78;28.63;;;4.70;99.90;;;;;;5062956;28;20045;-60
2022/03/22 00:04:02;;;;;;;38.67;26.08;;;4.70;99.90;;;;;;5049303;28;20446;-63
2022/03/22 00:06:31;;;;;;;42.83;28.95;;;4.70;99.90;;;;;;5058826;28;20374;-61
2022/03/22 00:08:57;;;;;;;38.47;27.08;;;4.70;99.90;;;;;;5054210;28;20517;-60
2022/03/22 00:11:23;;;;;;;41.65;25.40;;;4.70;99.90;;;;;;5053889;28;20045;-62
2022/03/22 00:13:49;;;;;;;36.78;25.30;;;4.70;99.90;;;;;;5068021;28;20464;-59
2022/03/22 00:16:15;;;;;;;40.97;28.30;;;4.70;99.90;;;;;;5066511;28;20048;-65
2022/03/22 00:18:41;;;;;;;39.53;27.35;;;4.60;99.90;;;;;;5068141;28;20504;-62
2022/03/22 00:21:07;;;;;;;48.50;29.50;;;4.60;99.90;;;;;;5065213;28;20045;-57
2022/03/22 00:23:33;;;;;;;49.70;29.67;;;4.60;99.90;;;;;;5067112;28;20041;-68
2022/03/22 00:25:59;;;;;;;43.97;29.13;;;4.50;99.90;;;;;;5066072;28;20572;-57
2022/03/22 00:28:25;;;;;;;47.15;30.35;;;4.40;99.90;;;;;;5046470;28;20095;-58
2022/03/22 00:30:51;;;;;;;44.47;31.08;;;4.50;99.90;;;;;;5042374;28;20084;-64
2022/03/22 00:33:17;;;;;;;47.88;28.00;;;4.50;99.90;;;;;;5065264;28;20056;-60
2022/03/22 00:35:43;;;;;;;45.65;31.02;;;4.50;99.90;;;;;;5067877;28;20040;-59
2022/03/22 00:38:16;;;;;;;48.58;30.60;;;4.50;99.90;;;;;;5062792;28;20049;-59
2022/03/22 00:40:43;;;;;;;51.40;29.42;;;4.50;99.90;;;;;;5058884;28;20434;-58
2022/03/22 00:43:10;;;;;;;47.15;30.42;;;4.50;99.90;;;;;;5066663;28;20051;-59
2022/03/22 00:45:39;;;;;;;48.63;27.20;;;4.50;99.90;;;;;;5066101;28;20040;-58
2022/03/22 00:48:08;;;;;;;43.63;28.05;;;4.50;99.90;;;;;;5065361;28;20056;-64
2022/03/22 00:50:40;;;;;;;40.97;27.70;;;4.50;99.90;;;;;;5062352;28;20052;-64
2022/03/22 00:53:08;;;;;;;39.78;27.30;;;4.40;99.90;;;;;;5061725;28;20074;-65
2022/03/22 00:55:35;;;;;;;39.33;26.23;;;4.30;99.90;;;;;;5049025;28;20065;-57
2022/03/22 00:58:02;;;;;;;44.78;29.52;;;4.20;99.90;;;;;;5063940;28;20056;-61
2022/03/22 01:00:29;;;;;;;49.83;28.27;;;4.20;99.90;;;;;;5046154;28;20539;-62
2022/03/22 01:02:58;;;;;;;42.53;29.13;;;4.20;99.90;;;;;;5046413;28;20040;-61
2022/03/22 01:05:25;;;;;;;46.17;30.38;;;4.20;99.90;;;;;;5061857;28;20371;-60
2022/03/22 01:07:56;;;;;;;43.22;29.17;;;4.20;99.90;;;;;;5057367;28;20090;-61
2022/03/22 01:10:25;;;;;;;55.55;31.58;;;4.20;99.90;;;;;;5055623;28;20048;-63
2022/03/22 01:12:51;;;;;;;45.03;29.23;;;4.20;99.90;;;;;;5062848;28;20040;-57
2022/03/22 01:15:23;;;;;;;37.70;24.58;;;4.20;99.90;;;;;;5066139;28;20047;-62
2022/03/22 01:17:53;;;;;;;37.47;27.25;;;4.10;99.90;;;;;;5064325;28;20059;-58
2022/03/22 01:20:22;;;;;;;42.08;25.13;;;4.10;99.90;;;;;;5053799;28;20036;-61
2022/03/22 01:22:49;;;;;;;40.05;27.10;;;4.10;99.90;;;;;;5064661;28;20481;-65
2022/03/22 01:25:19;;;;;;;43.95;28.55;;;4.10;99.90;;;;;;5064761;28;20044;-67
2022/03/22 01:27:47;;;;;;;43.20;28.45;;;4.10;99.90;;;;;;5066377;28;20051;-65
2022/03/22 01:30:16;;;;;;;46.72;27.38;;;4.10;99.90;;;;;;5065631;28;20041;-59
2022/03/22 01:32:43;;;;;;;46.08;26.10;;;4.00;99.90;;;;;;5062991;28;20358;-58
2022/03/22 01:35:12;;;;;;;40.28;28.38;;;4.00;99.90;;;;;;5062832;28;20099;-63
2022/03/22 01:37:39;;;;;;;49.97;26.85;;;3.90;99.90;;;;;;5055429;28;20510;-57
2022/03/22 01:40:06;;;;;;;43.97;29.70;;;3.90;99.90;;;;;;5066457;28;20094;-62
2022/03/22 01:42:32;;;;;;;46.22;29.65;;;3.90;99.90;;;;;;5064776;28;20176;-62
2022/03/22 01:44:58;;;;;;;48.10;31.65;;;3.90;99.90;;;;;;5066103;28;20037;-64
2022/03/22 01:47:24;;;;;;;49.25;30.98;;;4.10;99.90;;;;;;5064565;28;20117;-65
2022/03/22 01:49:51;;;;;;;48.45;32.78;;;4.10;99.90;;;;;;5062965;28;20037;-59
2022/03/22 01:52:19;;;;;;;46.97;30.92;;;4.20;99.90;;;;;;5064417;28;20052;-65
2022/03/22 01:54:50;;;;;;;50.03;31.58;;;4.20;99.90;;;;;;5065076;28;20045;-59
2022/03/22 01:57:19;;;;;;;50.72;32.38;;;4.20;99.90;;;;;;5066146;28;20048;-58
2022/03/22 01:59:47;;;;;;;50.22;31.13;;;4.20;99.90;;;;;;5064365;28;20131;-66
2022/03/22 02:07:45;;;;;;;52.05;30.17;;;4.20;99.90;;;;;;5050938;28;20045;-64
2022/03/22 02:10:11;;;;;;;48.17;29.77;;;4.20;99.90;;;;;;5054798;28;20098;-62
2022/03/22 02:12:38;;;;;;;43.97;30.15;;;4.30;99.90;;;;;;5061585;28;20370;-63
2022/03/22 02:15:05;;;;;;;53.47;32.90;;;4.20;99.90;;;;;;5065686;28;20040;-67
2022/03/22 02:17:31;;;;;;;52.38;30.98;;;4.20;99.90;;;;;;5063923;28;20052;-61
2022/03/22 02:19:58;;;;;;;48.13;27.98;;;4.20;99.90;;;;;;5062711;28;20047;-58
2022/03/22 02:22:44;;;;;;;51.03;29.83;;;4.10;99.90;;;;;;5041888;28;20045;-66
2022/03/22 02:25:15;;;;;;;48.00;30.67;;;4.00;99.90;;;;;;5064363;28;20048;-58
2022/03/22 02:27:48;;;;;;;42.92;26.77;;;4.00;99.90;;;;;;5066283;28;20686;-61
2022/03/22 02:30:15;;;;;;;38.20;28.42;;;3.90;99.90;;;;;;5060869;28;20490;-58
2022/03/22 02:32:49;;;;;;;46.65;29.42;;;3.90;99.90;;;;;;5059108;28;20068;-63
2022/03/22 02:35:15;;;;;;;43.08;26.90;;;3.90;99.90;;;;;;5065339;28;20044;-57
2022/03/22 02:37:41;;;;;;;51.70;29.77;;;3.90;99.90;;;;;;5064168;28;20048;-67
2022/03/22 02:40:09;;;;;;;42.20;28.23;;;3.80;99.90;;;;;;5045552;28;20041;-58
2022/03/22 02:42:35;;;;;;;68.65;31.75;;;3.80;99.90;;;;;;5056033;28;20178;-62
2022/03/22 02:45:01;;;;;;;46.97;29.55;;;3.70;99.90;;;;;;5065661;28;20124;-61
2022/03/22 02:47:27;;;;;;;44.15;28.42;;;3.70;99.90;;;;;;5063032;28;20051;-61
2022/03/22 02:49:52;;;;;;;52.08;31.25;;;3.70;99.90;;;;;;5048535;28;20091;-60
2022/03/22 02:52:18;;;;;;;51.53;31.20;;;3.70;99.90;;;;;;5064195;28;20088;-57
2022/03/22 02:54:44;;;;;;;40.80;27.20;;;3.70;99.90;;;;;;5061918;28;20123;-66
2022/03/22 02:57:10;;;;;;;47.40;26.95;;;3.70;99.90;;;;;;5064920;28;20521;-60
2022/03/22 02:59:36;;;;;;;46.63;28.80;;;3.80;99.90;;;;;;5064120;28;20052;-65
2022/03/22 03:02:04;;;;;;;43.83;26.83;;;3.80;99.90;;;;;;5066604;28;20507;-60
2022/03/22 03:04:30;;;;;;;42.00;28.25;;;3.80;99.90;;;;;;5027632;28;20107;-60
2022/03/22 03:06:56;;;;;;;48.88;29.38;;;3.80;99.90;;;;;;5063782;28;20464;-64
2022/03/22 03:09:22;;;;;;;45.47;30.17;;;3.80;99.90;;;;;;5058935;28;20048;-61
2022/03/22 03:11:47;;;;;;;45.40;27.10;;;3.80;99.90;;;;;;5055925;28;20083;-58
2022/03/22 03:16:59;;;;;;;53.80;31.10;;;3.70;99.90;;;;;;5063717;28;20048;-62
2022/03/22 03:19:25;;;;;;;46.20;28.77;;;3.80;99.90;;;;;;5061617;28;20053;-62
2022/03/22 03:21:51;;;;;;;41.25;23.98;;;3.80;99.90;;;;;;5018604;28;20482;-61
2022/03/22 03:24:17;;;;;;;35.58;25.23;;;3.80;99.90;;;;;;5065061;28;20123;-60
2022/03/22 03:26:43;;;;;;;46.70;27.67;;;3.70;99.90;;;;;;5063503;28;20049;-58
2022/03/22 03:29:09;;;;;;;47.10;28.75;;;3.70;99.90;;;;;;5064828;28;20048;-63
2022/03/22 03:31:35;;;;;;;47.47;29.27;;;3.80;99.90;;;;;;5050095;28;20087;-57
2022/03/22 03:34:01;;;;;;;40.85;27.73;;;3.90;99.90;;;;;;5060922;28;20044;-59
2022/03/22 03:36:27;;;;;;;40.72;26.58;;;3.90;99.90;;;;;;5068685;28;20116;-57
2022/03/22 03:38:53;;;;;;;40.78;26.73;;;3.80;99.90;;;;;;5064381;28;20045;-58
2022/03/22 03:47:03;;;;;;;47.83;28.15;;;3.60;99.90;;;;;;5067650;28;20075;-62
2022/03/22 03:47:04;;;;;;;45.40;27.27;;;3.60;99.90;;;;;;5067131;28;20048;-61
2022/03/22 03:49:45;;;;;;;44.53;25.23;;;3.60;99.90;;;;;;5069749;28;20523;-58
2022/03/22 03:52:18;;;;;;;47.33;26.05;;;3.60;99.90;;;;;;5066602;28;20482;-58
2022/03/22 03:54:44;;;;;;;58.15;26.15;;;3.60;99.90;;;;;;5067987;28;20048;-64
2022/03/22 03:57:11;;;;;;;48.42;27.30;;;3.70;99.90;;;;;;5048038;28;20068;-61
2022/03/22 03:59:37;;;;;;;46.55;27.05;;;3.90;99.90;;;;;;5060501;28;20070;-59
2022/03/22 04:02:06;;;;;;;44.25;28.13;;;4.10;99.90;;;;;;5068239;28;20094;-59
2022/03/22 04:04:32;;;;;;;43.85;28.52;;;4.20;99.90;;;;;;5046067;28;20052;-64
2022/03/22 04:06:58;;;;;;;43.83;28.27;;;4.20;99.90;;;;;;5065202;28;20040;-61
2022/03/22 04:09:24;;;;;;;45.58;29.27;;;4.20;99.90;;;;;;5045273;28;20095;-62
2022/03/22 04:11:50;;;;;;;46.67;28.27;;;4.10;99.90;;;;;;5067788;28;20052;-64
2022/03/22 04:14:16;;;;;;;46.60;28.23;;;4.10;99.90;;;;;;5050264;28;20098;-63
2022/03/22 04:16:42;;;;;;;46.58;27.48;;;4.20;99.90;;;;;;5047367;28;20502;-63
2022/03/22 04:19:08;;;;;;;42.42;26.17;;;4.30;99.90;;;;;;5063188;28;20135;-66
2022/03/22 04:21:36;;;;;;;38.38;24.50;;;4.30;99.90;;;;;;5046609;28;20367;-63
2022/03/22 04:24:07;;;;;;;41.95;25.10;;;4.40;99.90;;;;;;5058351;28;20041;-60
2022/03/22 04:26:38;;;;;;;39.22;24.35;;;4.50;99.90;;;;;;5053945;28;20462;-64
2022/03/22 04:34:33;;;;;;;41.72;25.75;;;4.60;99.90;;;;;;5065549;28;20045;-62
2022/03/22 04:37:00;;;;;;;44.15;26.42;;;4.50;99.90;;;;;;5067777;28;20122;-60
2022/03/22 04:39:29;;;;;;;48.55;25.70;;;4.40;99.90;;;;;;5066404;28;20103;-60
2022/03/22 04:41:56;;;;;;;42.08;26.40;;;4.30;99.90;;;;;;5065538;28;20045;-62
2022/03/22 04:44:23;;;;;;;44.80;27.10;;;4.20;99.90;;;;;;5053353;28;20107;-57
2022/03/22 04:46:49;;;;;;;42.30;25.75;;;4.20;99.90;;;;;;5058727;28;20121;-59
2022/03/22 04:49:15;;;;;;;41.42;27.33;;;4.20;99.90;;;;;;5055196;28;20112;-57
2022/03/22 04:57:11;;;;;;;39.10;25.45;;;4.20;99.90;;;;;;5056537;28;20052;-62
2022/03/22 04:59:36;;;;;;;44.92;25.92;;;4.20;99.90;;;;;;5055051;28;20477;-60
2022/03/22 05:02:03;;;;;;;39.92;25.45;;;4.30;99.90;;;;;;5063375;28;20098;-65
2022/03/22 05:04:28;;;;;;;38.75;24.95;;;4.50;99.90;;;;;;5061924;28;20053;-66
2022/03/22 05:06:54;;;;;;;47.42;25.25;;;4.50;99.90;;;;;;5055275;28;20513;-60
2022/03/22 05:09:20;;;;;;;52.10;22.65;;;4.60;99.90;;;;;;5052614;28;20044;-60
2022/03/22 05:11:46;;;;;;;39.65;24.08;;;4.60;99.90;;;;;;5057458;28;20048;-58
2022/03/22 05:14:11;;;;;;;41.00;24.58;;;4.60;99.90;;;;;;5065330;28;20082;-61
2022/03/22 05:16:38;;;;;;;47.67;24.40;;;4.60;99.90;;;;;;5064493;28;20136;-58
2022/03/22 05:19:05;;;;;;;53.85;24.85;;;4.50;99.90;;;;;;5062093;28;20068;-65
2022/03/22 05:21:31;;;;;;;39.22;25.52;;;4.50;99.90;;;;;;5066478;28;20079;-59
2022/03/22 05:23:57;;;;;;;43.20;24.55;;;4.40;99.90;;;;;;5067892;28;20040;-58
2022/03/22 05:26:26;;;;;;;41.88;24.05;;;4.40;99.90;;;;;;5066732;28;20041;-62
2022/03/22 05:28:53;;;;;;;39.90;22.75;;;4.30;99.90;;;;;;5066301;28;20049;-68
2022/03/22 05:31:21;;;;;;;38.13;24.67;;;4.20;99.90;;;;;;5064645;28;20510;-57
2022/03/22 05:33:48;;;;;;;42.92;25.27;;;4.10;99.90;;;;;;5067765;28;20048;-64
2022/03/22 05:36:14;;;;;;;42.40;25.55;;;4.10;99.90;;;;;;5065579;28;20410;-57
2022/03/22 05:38:40;;;;;;;40.83;25.77;;;4.00;99.90;;;;;;5067062;28;20505;-63
2022/03/22 05:41:07;;;;;;;45.80;25.13;;;4.10;99.90;;;;;;5067009;28;20050;-63
2022/03/22 05:43:33;;;;;;;47.42;25.10;;;4.10;99.90;;;;;;5066268;28;20067;-61
2022/03/22 05:45:59;;;;;;;39.58;25.17;;;4.10;99.90;;;;;;5062772;28;20449;-57
2022/03/22 05:48:26;;;;;;;42.30;24.92;;;4.20;99.90;;;;;;5062892;28;20048;-62
2022/03/22 05:50:52;;;;;;;39.97;24.88;;;4.20;99.90;;;;;;5065956;28;20558;-61
2022/03/22 05:53:18;;;;;;;40.25;24.13;;;4.30;99.90;;;;;;5064190;28;20144;-58
2022/03/22 05:55:43;;;;;;;38.63;23.75;;;4.40;99.90;;;;;;5065265;28;20139;-57
2022/03/22 05:58:10;;;;;;;38.45;25.38;;;4.40;99.90;;;;;;5076431;28;20541;-59
2022/03/22 06:00:37;;;;;;;38.80;22.35;;;4.40;99.90;;;;;;5066324;28;20072;-68
2022/03/22 06:03:03;;;;;;;36.83;23.23;;;4.40;99.90;;;;;;5065891;28;20053;-63
2022/03/22 06:05:29;;;;;;;40.13;24.88;;;4.40;99.90;;;;;;5064581;28;20094;-63
2022/03/22 06:07:56;;;;;;;41.03;24.27;;;4.40;99.90;;;;;;5046088;28;20048;-59
2022/03/22 06:10:22;;;;;;;44.10;25.67;;;4.40;99.90;;;;;;5045597;28;20051;-58
2022/03/22 06:12:51;;;;;;;39.38;24.27;;;4.50;99.90;;;;;;5063963;28;20043;-62
2022/03/22 06:15:18;;;;;;;42.47;25.07;;;4.50;99.90;;;;;;5065056;28;20094;-61
2022/03/22 06:17:52;;;;;;;43.45;25.33;;;4.50;99.90;;;;;;5064379;28;20046;-66
2022/03/22 06:20:20;;;;;;;37.30;25.73;;;4.60;99.90;;;;;;5065970;28;20045;-59
2022/03/22 06:22:48;;;;;;;36.22;23.83;;;4.70;99.90;;;;;;5063488;28;20076;-58
2022/03/22 06:25:14;;;;;;;43.70;23.77;;;4.80;99.90;;;;;;5045827;28;20091;-63
2022/03/22 06:27:41;;;;;;;38.38;24.08;;;4.90;99.90;;;;;;5041568;28;20139;-67
2022/03/22 06:30:09;;;;;;;41.45;23.63;;;4.90;99.90;;;;;;5048887;28;20042;-57
2022/03/22 06:32:58;;;;;;;39.15;23.75;;;4.90;99.90;;;;;;5046316;28;20048;-63
2022/03/22 06:35:30;;;;;;;41.63;24.52;;;4.90;99.90;;;;;;5056487;28;20410;-66
2022/03/22 06:37:58;;;;;;;40.72;24.00;;;4.90;99.90;;;;;;5052704;28;20052;-66
2022/03/22 06:40:29;;;;;;;35.70;24.00;;;5.00;99.90;;;;;;5050890;28;20059;-61
2022/03/22 06:42:55;;;;;;;;;;;5.10;99.90;;;;;;5053581;28;20072;-63
2022/03/22 06:45:21;;;;;;;41.13;23.55;;;5.20;99.90;;;;;;5044385;28;19924;-61
2022/03/22 06:47:48;;;;;;;40.67;24.20;;;5.20;99.90;;;;;;5060040;28;20055;-63
2022/03/22 06:50:17;;;;;;;38.65;23.35;;;5.20;99.90;;;;;;5045705;28;20128;-62
2022/03/22 06:52:43;;;;;;;49.78;26.52;;;5.30;99.90;;;;;;5060928;28;20569;-61
2022/03/22 06:55:11;;;;;;;37.05;22.25;;;5.30;99.90;;;;;;5059329;28;20059;-62
2022/03/22 06:57:38;;;;;;;36.47;22.35;;;5.40;99.90;;;;;;5061673;28;20047;-65
2022/03/22 07:00:10;;;;;;;36.65;23.13;;;5.50;99.90;;;;;;5044452;28;20045;-68
2022/03/22 07:02:38;;;;;;;36.15;23.95;;;5.60;99.90;;;;;;5055201;28;20040;-61
2022/03/22 07:05:04;;;;;;;38.95;23.80;;;5.80;99.90;;;;;;5049497;28;20041;-60
2022/03/22 07:07:30;;;;;;;38.65;24.95;;;5.90;99.90;;;;;;5057350;28;20046;-56
2022/03/22 07:09:56;;;;;;;44.63;24.35;;;6.00;99.90;;;;;;5043162;28;20058;-57
2022/03/22 07:12:22;;;;;;;41.40;24.90;;;6.10;99.90;;;;;;5068373;28;20090;-57
2022/03/22 07:14:47;;;;;;;42.63;23.10;;;6.10;99.90;;;;;;5051026;28;20044;-63
2022/03/22 07:17:13;;;;;;;36.17;24.13;;;6.20;99.90;;;;;;5068923;28;20079;-66
2022/03/22 07:19:39;;;;;;;41.35;23.20;;;6.30;99.90;;;;;;5049695;28;20051;-59
2022/03/22 07:22:06;;;;;;;41.97;23.95;;;6.30;99.90;;;;;;5068298;28;20041;-62
2022/03/22 07:24:33;;;;;;;42.72;24.63;;;6.40;99.90;;;;;;5048066;28;20044;-57
2022/03/22 07:26:59;;;;;;;37.20;22.73;;;6.40;99.90;;;;;;5064901;28;20041;-56
2022/03/22 07:29:25;;;;;;;39.63;24.65;;;6.50;99.90;;;;;;5068248;28;20131;-62
2022/03/22 07:31:51;;;;;;;49.25;26.10;;;6.60;99.90;;;;;;5062930;28;20462;-57
2022/03/22 07:34:20;;;;;;;42.28;24.95;;;6.60;99.90;;;;;;5065219;28;20094;-67
2022/03/22 07:36:52;;;;;;;42.58;25.60;;;6.70;99.90;;;;;;5066215;28;20046;-62
2022/03/22 07:39:19;;;;;;;41.88;25.55;;;6.80;99.90;;;;;;5066482;28;20052;-63
2022/03/22 07:41:46;;;;;;;53.83;26.60;;;6.90;99.90;;;;;;5066860;28;20035;-57
2022/03/22 07:44:12;;;;;;;38.40;24.17;;;7.10;99.90;;;;;;5060263;28;20163;-61
2022/03/22 07:46:45;;;;;;;40.50;24.92;;;7.20;99.90;;;;;;5058228;28;20040;-61
2022/03/22 07:54:41;;;;;;;41.17;26.30;;;7.50;99.90;;;;;;5065358;28;20040;-64
2022/03/22 07:57:07;;;;;;;44.58;26.67;;;7.60;99.90;;;;;;5059407;28;20083;-67
2022/03/22 07:59:33;;;;;;;42.78;26.13;;;7.70;99.90;;;;;;5061961;28;20075;-61
2022/03/22 08:02:00;;;;;;;46.10;28.02;;;7.80;99.90;;;;;;5057343;28;20037;-64
2022/03/22 08:04:26;;;;;;;43.35;27.02;;;7.90;99.90;;;;;;5053473;28;20037;-58
2022/03/22 08:06:52;;;;;;;43.33;26.50;;;8.10;99.90;;;;;;5063397;28;20057;-65
2022/03/22 08:09:19;;;;;;;42.75;27.40;;;8.20;99.90;;;;;;5056565;28;20045;-59
2022/03/22 08:11:44;;;;;;;42.63;26.80;;;8.30;99.90;;;;;;5066685;28;20054;-63
2022/03/22 08:14:10;;;;;;;46.75;27.33;;;8.50;99.90;;;;;;5060507;28;20037;-58
2022/03/22 08:16:37;;;;;;;44.58;28.38;;;8.60;99.90;;;;;;5064761;28;20056;-54
2022/03/22 08:19:07;;;;;;;49.50;29.05;;;8.80;99.90;;;;;;5059588;28;20037;-67
2022/03/22 08:21:35;;;;;;;46.45;28.92;;;8.90;99.90;;;;;;5062736;28;20045;-60
2022/03/22 08:24:01;;;;;;;43.78;27.95;;;9.10;99.90;;;;;;5050183;28;20094;-61
2022/03/22 08:26:28;;;;;;;41.50;28.42;;;9.30;99.90;;;;;;5057837;28;20048;-58
2022/03/22 08:28:56;;;;;;;50.75;27.23;;;9.40;99.90;;;;;;5042415;28;20068;-57
2022/03/22 08:31:22;;;;;;;38.72;26.63;;;9.60;99.90;;;;;;5058895;28;20574;-57
2022/03/22 08:33:49;;;;;;;49.13;26.67;;;9.70;99.90;;;;;;5054855;28;20132;-56
2022/03/22 08:36:15;;;;;;;48.60;27.67;;;9.80;99.90;;;;;;5043574;28;20077;-57
2022/03/22 08:38:41;;;;;;;43.05;26.75;;;10.00;99.90;;;;;;5063642;28;20037;-62
2022/03/22 08:41:07;;;;;;;39.83;28.77;;;10.10;99.90;;;;;;5057753;28;20055;-61
2022/03/22 08:43:32;;;;;;;47.50;27.80;;;10.20;99.90;;;;;;5064290;28;20425;-65
2022/03/22 08:45:59;;;;;;;39.88;27.50;;;10.40;99.90;;;;;;5049187;28;20082;-60
2022/03/22 08:48:25;;;;;;;51.63;29.30;;;10.50;99.90;;;;;;5059622;28;20071;-63
2022/03/22 08:50:51;;;;;;;46.58;28.15;;;10.70;99.90;;;;;;5057305;28;20511;-62
2022/03/22 08:53:19;;;;;;;48.72;28.60;;;10.80;99.90;;;;;;5050872;28;20405;-68
2022/03/22 08:55:48;;;;;;;44.58;27.65;;;10.90;99.90;;;;;;5061299;28;20478;-67
2022/03/22 08:58:16;;;;;;;49.10;28.25;;;11.00;99.90;;;;;;5049007;28;20064;-63
2022/03/22 09:00:45;;;;;;;42.38;26.45;;;11.10;99.90;;;;;;5062868;28;20044;-56
2022/03/22 09:03:11;;;;;;;42.88;26.73;;;11.30;99.90;;;;;;5063584;28;20406;-61
2022/03/22 09:08:22;;;;;;;43.55;25.40;;;11.50;99.90;;;;;;5070312;28;20490;-63
2022/03/22 09:10:50;;;;;;;43.47;27.30;;;11.70;99.90;;;;;;5060374;28;20040;-55
2022/03/22 09:13:16;;;;;;;43.05;27.85;;;11.90;99.90;;;;;;5060403;28;20049;-54
2022/03/22 09:15:44;;;;;;;39.70;25.10;;;12.00;99.90;;;;;;5063458;28;20040;-52
2022/03/22 09:18:18;;;;;;;45.72;26.77;;;12.20;99.90;;;;;;5043091;28;20563;-57
2022/03/22 09:20:45;;;;;;;39.58;25.10;;;12.40;99.90;;;;;;5049542;28;20067;-56
2022/03/22 09:23:12;;;;;;;39.92;25.42;;;12.60;99.90;;;;;;5049825;28;20044;-57
2022/03/22 09:25:43;;;;;;;40.28;24.30;;;12.80;99.90;;;;;;5047104;28;20037;-58
2022/03/22 09:28:10;;;;;;;45.45;23.23;;;12.90;99.90;;;;;;5074606;28;20048;-60
2022/03/22 09:30:38;;;;;;;37.30;24.80;;;13.00;99.90;;;;;;5049367;28;20060;-57
2022/03/22 09:33:07;;;;;;;38.38;25.00;;;13.10;99.90;;;;;;5044371;28;20375;-67
2022/03/22 09:35:34;;;;;;;42.97;26.35;;;13.30;99.90;;;;;;5064144;28;20768;-58
2022/03/22 09:38:00;;;;;;;49.58;24.50;;;13.40;99.90;;;;;;5063722;28;20233;-64
2022/03/22 09:40:27;;;;;;;39.42;23.42;;;13.50;99.90;;;;;;5060642;28;20127;-60
2022/03/22 09:42:57;;;;;;;66.55;38.85;;;13.70;99.90;;;;;;5055521;28;20049;-62
2022/03/22 09:45:26;;;;;;;83.30;45.72;;;13.80;99.90;;;;;;5047620;28;20047;-56
2022/03/22 09:47:53;;;;;;;82.53;45.67;;;13.90;99.90;;;;;;5058102;28;20049;-59
2022/03/22 09:50:20;;;;;;;61.42;34.88;;;13.90;99.90;;;;;;5058117;28;20479;-59
2022/03/22 09:52:46;;;;;;;44.75;26.65;;;13.90;99.90;;;;;;5057412;28;20469;-59
2022/03/22 09:55:16;;;;;;;51.75;26.92;;;13.90;99.90;;;;;;5056069;28;20049;-66
2022/03/22 09:57:42;;;;;;;;;;;14.00;99.90;;;;;;5062506;28;20490;-63
2022/03/22 10:00:13;;;;;;;41.88;22.48;;;14.10;99.90;;;;;;5063525;28;19931;-62
2022/03/22 10:02:45;;;;;;;39.38;24.27;;;14.20;99.90;;;;;;5051792;28;20056;-58
2022/03/22 10:05:22;;;;;;;37.22;24.45;;;14.30;99.90;;;;;;5062567;28;20128;-60
2022/03/22 10:07:59;;;;;;;37.90;22.15;;;14.40;99.90;;;;;;5061339;28;20052;-62
2022/03/22 10:10:31;;;;;;;37.05;24.20;;;14.40;97.70;;;;;;5063555;28;20056;-61
2022/03/22 10:12:59;;;;;;;37.28;22.92;;;14.50;98.50;;;;;;5065198;28;20040;-59
2022/03/22 10:15:34;;;;;;;37.33;23.17;;;14.60;97.50;;;;;;5064368;28;20045;-68
2022/03/22 10:18:06;;;;;;;39.10;23.50;;;14.60;96.90;;;;;;5061254;28;20044;-65
2022/03/22 10:20:37;;;;;;;38.08;22.90;;;14.80;99.90;;;;;;5064134;28;20088;-67
2022/03/22 10:23:05;;;;;;;35.67;24.70;;;15.00;96.70;;;;;;5064190;28;20032;-69
2022/03/22 10:25:33;;;;;;;47.72;27.00;;;15.10;96.00;;;;;;5047927;28;20133;-60
2022/03/22 10:28:02;;;;;;;43.75;26.38;;;15.20;99.90;;;;;;5047404;28;20044;-70
2022/03/22 10:30:29;;;;;;;42.25;26.55;;;15.10;99.90;;;;;;5062246;28;20049;-64
2022/03/22 10:32:55;;;;;;;44.80;29.00;;;15.10;99.90;;;;;;5063037;28;20048;-51
2022/03/22 10:35:29;;;;;;;41.97;27.50;;;14.90;99.90;;;;;;5066362;28;20048;-66
2022/03/22 10:38:04;;;;;;;37.38;25.20;;;14.70;99.90;;;;;;5055719;28;20056;-64
2022/03/22 10:40:44;;;;;;;40.58;26.83;;;14.50;99.90;;;;;;5056439;28;20052;-59
2022/03/22 10:43:22;;;;;;;38.58;25.33;;;14.50;99.90;;;;;;5061060;28;20045;-57
2022/03/22 10:45:49;;;;;;;37.65;25.35;;;14.50;99.90;;;;;;5054834;28;20536;-58
2022/03/22 10:48:18;;;;;;;31.95;25.75;;;14.40;99.90;;;;;;5055185;28;20036;-60
2022/03/22 10:50:46;;;;;;;38.13;25.42;;;14.40;99.90;;;;;;5061636;28;20166;-59
2022/03/22 10:53:15;;;;;;;38.17;24.38;;;14.40;99.90;;;;;;5062442;28;20075;-61
2022/03/22 10:55:43;;;;;;;42.05;26.20;;;15.10;99.90;;;;;;5053222;28;20053;-57
2022/03/22 10:58:11;;;;;;;38.22;24.83;;;15.10;99.90;;;;;;5060791;28;20044;-68
2022/03/22 11:00:39;;;;;;;38.28;26.38;;;15.20;99.90;;;;;;5053697;28;20490;-58
2022/03/22 11:03:06;;;;;;;37.08;25.88;;;15.30;99.90;;;;;;5053203;28;20060;-65
2022/03/22 11:05:33;;;;;;;40.80;25.90;;;15.40;99.90;;;;;;5054983;28;20426;-59
2022/03/22 11:07:59;;;;;;;36.75;26.38;;;15.40;99.90;;;;;;5051349;28;20735;-59
2022/03/22 11:10:29;;;;;;;39.22;25.42;;;15.40;99.90;;;;;;5051540;28;20577;-66
2022/03/22 11:12:58;;;;;;;33.65;25.67;;;15.30;99.90;;;;;;5044018;28;20071;-57
2022/03/22 11:15:29;;;;;;;41.47;26.45;;;15.50;99.90;;;;;;5058865;28;20052;-65
2022/03/22 11:17:56;;;;;;;39.63;25.25;;;15.60;99.90;;;;;;5060861;28;20510;-57
2022/03/22 11:20:24;;;;;;;36.13;25.48;;;15.80;99.90;;;;;;5058859;28;20115;-64
2022/03/22 11:22:54;;;;;;;36.72;24.95;;;16.00;99.90;;;;;;5062672;28;20398;-59
2022/03/22 11:25:25;;;;;;;38.13;25.50;;;16.20;99.90;;;;;;5045690;28;20527;-62
2022/03/22 11:27:57;;;;;;;38.17;25.70;;;16.20;99.90;;;;;;5062043;28;20116;-67
2022/03/22 11:30:25;;;;;;;38.45;24.85;;;16.10;99.90;;;;;;5059119;28;20087;-68
2022/03/22 11:35:53;;;;;;;40.28;25.35;;;16.10;99.90;;;;;;5061825;28;20044;-60
2022/03/22 11:38:59;;;;;;;39.33;25.35;;;16.20;99.90;;;;;;5070360;28;20056;-61
2022/03/22 11:44:18;;;;;;;40.38;25.35;;;16.40;99.90;;;;;;5046755;28;20084;-62
2022/03/22 11:46:45;;;;;;;37.22;24.58;;;16.60;99.80;;;;;;5052602;28;20122;-62
2022/03/22 11:49:22;;;;;;;41.40;24.48;;;16.70;96.10;;;;;;5058749;28;20545;-63
2022/03/22 11:51:53;;;;;;;35.15;23.75;;;16.70;98.20;;;;;;5060399;28;20041;-57
2022/03/22 11:54:19;;;;;;;37.42;23.98;;;16.70;96.40;;;;;;5052284;28;20045;-57
2022/03/22 11:57:06;;;;;;;40.67;23.70;;;16.70;97.60;;;;;;5063140;28;20048;-68
2022/03/22 11:59:43;;;;;;;36.75;23.70;;;16.90;96.60;;;;;;5064206;28;20119;-60
2022/03/22 12:02:12;;;;;;;33.72;23.63;;;16.90;95.30;;;;;;5065085;28;20094;-63
2022/03/22 12:04:42;;;;;;;;;;;16.90;95.30;;;;;;5059070;28;20089;-56
2022/03/22 12:07:10;;;;;;;39.50;24.25;;;16.90;96.60;;;;;;5063928;28;19943;-68
2022/03/22 12:09:43;;;;;;;34.20;23.20;;;17.10;99.90;;;;;;5057865;28;20483;-56
2022/03/22 12:12:14;;;;;;;37.15;21.48;;;17.10;99.40;;;;;;5048888;28;20465;-60
2022/03/22 12:14:42;;;;;;;37.08;24.20;;;17.00;91.00;;;;;;5071733;28;20044;-59
2022/03/22 12:17:08;;;;;;;34.88;23.10;;;17.10;95.90;;;;;;5067671;28;20076;-62
2022/03/22 12:19:35;;;;;;;34.83;23.48;;;17.30;95.70;;;;;;5031093;28;20134;-60
2022/03/22 12:22:02;;;;;;;36.72;23.70;;;17.30;94.10;;;;;;5065064;28;20060;-61
2022/03/22 12:24:34;;;;;;;33.90;23.20;;;17.40;93.30;;;;;;5066748;28;20403;-58
2022/03/22 12:27:07;;;;;;;36.65;25.08;;;17.40;95.60;;;;;;5067608;28;20059;-63
2022/03/22 12:29:38;;;;;;;32.38;23.63;;;17.50;93.40;;;;;;5066950;28;20499;-65
2022/03/22 12:32:06;;;;;;;35.90;23.55;;;17.60;93.70;;;;;;5059946;28;20090;-63
2022/03/22 12:34:36;;;;;;;38.35;23.27;;;17.70;92.30;;;;;;5045559;28;20040;-61
2022/03/22 12:37:03;;;;;;;;;;;17.60;90.50;;;;;;5067515;28;20127;-61
2022/03/22 12:39:29;;;;;;;32.08;24.77;;;17.40;95.00;;;;;;5065930;28;20007;-59
2022/03/22 12:41:56;;;;;;;40.10;24.85;;;17.00;95.70;;;;;;5066398;28;20064;-63
2022/03/22 12:44:23;;;;;;;35.30;22.38;;;16.70;99.30;;;;;;5063932;28;20057;-60
2022/03/22 12:46:49;;;;;;;36.15;24.42;;;16.50;94.80;;;;;;5064267;28;20036;-60
2022/03/22 12:49:15;;;;;;;37.55;24.35;;;16.40;94.60;;;;;;5059579;28;20050;-59
2022/03/22 12:51:41;;;;;;;34.88;23.65;;;16.30;90.40;;;;;;5051155;28;20046;-62
2022/03/22 12:54:09;;;;;;;36.80;23.75;;;16.20;92.50;;;;;;5051776;28;20128;-64
2022/03/22 12:56:35;;;;;;;33.78;22.75;;;16.40;96.60;;;;;;5041068;28;20131;-57
2022/03/22 12:59:01;;;;;;;33.50;24.17;;;16.60;94.40;;;;;;5052061;28;20131;-67
2022/03/22 13:01:38;;;;;;;37.60;24.05;;;16.80;92.70;;;;;;5064328;28;20081;-58
2022/03/22 13:04:06;;;;;;;33.58;23.27;;;16.90;81.90;;;;;;5057603;28;20178;-59
2022/03/22 13:06:32;;;;;;;39.95;24.25;;;16.90;79.80;;;;;;5058683;28;20406;-61
2022/03/22 13:11:42;;;;;;;37.80;25.02;;;17.00;83.30;;;;;;5062499;28;20056;-57
2022/03/22 13:16:57;;;;;;;40.85;24.33;;;17.20;81.20;;;;;;5065621;28;20080;-65
2022/03/22 13:19:30;;;;;;;35.80;24.48;;;17.20;73.60;;;;;;5066612;28;20115;-65
2022/03/22 13:21:56;;;;;;;47.22;25.48;;;17.20;76.70;;;;;;5065366;28;20048;-61